Weather at Mineralnyye Vody Airport

Public forecast

Using degrees Celsius for public forecast. Weather courtesy of forecast.io.

Current aviation weather report (METAR) for Mineralnyye Vody Airport

Retrieved 2021/04/12 13:00 UTC (5 minutes ago):

URMM 121300Z 30005MPS 9999 OVC022 10/06 Q1021 R30/090070 NOSIG RMK MT OBSC QFE737/0983

Aviation forecast (TAF) for Mineralnyye Vody Airport

Retrieved 2021/04/12 12:22 UTC (43 minutes ago):

TAF URMM 121100Z 1212/1312 28003G08MPS 9999 BKN016 TX12/1312Z TN04/1303Z TEMPO 1212/1309 28006G13MPS 3100 -SHRA BR BKN004 BKN020CB